sensor_id;sensor_type;location;lat;lon;timestamp;P1;durP1;ratioP1;P2;durP2;ratioP2
27199;SDS011;14714;48.106;11.546;2022-12-20T00:01:14;19.55;;;11.05;;
27199;SDS011;14714;48.106;11.546;2022-12-20T00:03:43;20.15;;;11.18;;
27199;SDS011;14714;48.106;11.546;2022-12-20T00:06:11;19.40;;;10.57;;
27199;SDS011;14714;48.106;11.546;2022-12-20T00:08:38;16.02;;;9.82;;
27199;SDS011;14714;48.106;11.546;2022-12-20T00:11:05;16.52;;;9.65;;
27199;SDS011;14714;48.106;11.546;2022-12-20T00:13:33;14.90;;;9.85;;
27199;SDS011;14714;48.106;11.546;2022-12-20T00:20:59;15.25;;;8.80;;
27199;SDS011;14714;48.106;11.546;2022-12-20T00:23:27;16.38;;;10.23;;
27199;SDS011;14714;48.106;11.546;2022-12-20T00:26:02;15.93;;;9.80;;
27199;SDS011;14714;48.106;11.546;2022-12-20T00:28:31;15.93;;;9.52;;
27199;SDS011;14714;48.106;11.546;2022-12-20T00:30:58;14.93;;;9.43;;
27199;SDS011;14714;48.106;11.546;2022-12-20T00:33:26;13.98;;;8.63;;
27199;SDS011;14714;48.106;11.546;2022-12-20T00:35:53;16.95;;;9.73;;
27199;SDS011;14714;48.106;11.546;2022-12-20T00:38:22;15.63;;;9.35;;
27199;SDS011;14714;48.106;11.546;2022-12-20T00:43:26;15.60;;;8.77;;
27199;SDS011;14714;48.106;11.546;2022-12-20T00:45:53;13.10;;;8.27;;
27199;SDS011;14714;48.106;11.546;2022-12-20T00:48:21;17.58;;;9.50;;
27199;SDS011;14714;48.106;11.546;2022-12-20T00:50:48;14.68;;;8.93;;
27199;SDS011;14714;48.106;11.546;2022-12-20T00:53:15;15.05;;;9.05;;
27199;SDS011;14714;48.106;11.546;2022-12-20T00:55:51;16.45;;;9.60;;
27199;SDS011;14714;48.106;11.546;2022-12-20T00:58:18;13.55;;;8.50;;
27199;SDS011;14714;48.106;11.546;2022-12-20T01:00:45;16.88;;;10.07;;
27199;SDS011;14714;48.106;11.546;2022-12-20T01:03:21;17.27;;;10.27;;
27199;SDS011;14714;48.106;11.546;2022-12-20T01:05:49;15.80;;;9.30;;
27199;SDS011;14714;48.106;11.546;2022-12-20T01:08:18;13.50;;;8.20;;
27199;SDS011;14714;48.106;11.546;2022-12-20T01:10:46;13.55;;;8.00;;
27199;SDS011;14714;48.106;11.546;2022-12-20T01:13:34;12.75;;;8.10;;
27199;SDS011;14714;48.106;11.546;2022-12-20T01:16:23;13.13;;;8.05;;
27199;SDS011;14714;48.106;11.546;2022-12-20T01:18:50;12.73;;;7.65;;
27199;SDS011;14714;48.106;11.546;2022-12-20T01:21:18;12.40;;;7.13;;
27199;SDS011;14714;48.106;11.546;2022-12-20T01:23:46;11.55;;;7.35;;
27199;SDS011;14714;48.106;11.546;2022-12-20T01:26:14;12.18;;;7.40;;
27199;SDS011;14714;48.106;11.546;2022-12-20T01:28:44;13.63;;;7.45;;
27199;SDS011;14714;48.106;11.546;2022-12-20T01:31:12;12.63;;;7.25;;
27199;SDS011;14714;48.106;11.546;2022-12-20T01:33:43;12.77;;;7.78;;
27199;SDS011;14714;48.106;11.546;2022-12-20T01:36:16;12.77;;;7.65;;
27199;SDS011;14714;48.106;11.546;2022-12-20T01:38:50;13.63;;;7.82;;
27199;SDS011;14714;48.106;11.546;2022-12-20T01:41:25;14.25;;;7.63;;
27199;SDS011;14714;48.106;11.546;2022-12-20T01:46:26;11.45;;;7.13;;
27199;SDS011;14714;48.106;11.546;2022-12-20T01:51:25;11.05;;;6.68;;
27199;SDS011;14714;48.106;11.546;2022-12-20T01:53:56;12.07;;;7.18;;
27199;SDS011;14714;48.106;11.546;2022-12-20T01:56:27;13.57;;;7.70;;
27199;SDS011;14714;48.106;11.546;2022-12-20T01:58:54;12.23;;;7.55;;
27199;SDS011;14714;48.106;11.546;2022-12-20T02:01:23;8.65;;;6.32;;
27199;SDS011;14714;48.106;11.546;2022-12-20T02:03:51;10.82;;;6.75;;
27199;SDS011;14714;48.106;11.546;2022-12-20T02:06:20;11.60;;;6.70;;
27199;SDS011;14714;48.106;11.546;2022-12-20T02:08:49;11.32;;;6.95;;
27199;SDS011;14714;48.106;11.546;2022-12-20T02:16:56;11.07;;;6.63;;
27199;SDS011;14714;48.106;11.546;2022-12-20T02:28:11;8.82;;;5.30;;
27199;SDS011;14714;48.106;11.546;2022-12-20T02:30:52;9.02;;;5.90;;
27199;SDS011;14714;48.106;11.546;2022-12-20T02:33:21;9.98;;;5.78;;
27199;SDS011;14714;48.106;11.546;2022-12-20T02:38:27;8.75;;;4.88;;
27199;SDS011;14714;48.106;11.546;2022-12-20T02:43:48;9.95;;;6.15;;
27199;SDS011;14714;48.106;11.546;2022-12-20T02:46:39;8.45;;;5.28;;
27199;SDS011;14714;48.106;11.546;2022-12-20T02:49:08;8.68;;;5.25;;
27199;SDS011;14714;48.106;11.546;2022-12-20T02:51:40;9.23;;;5.20;;
27199;SDS011;14714;48.106;11.546;2022-12-20T02:56:41;8.30;;;5.13;;
27199;SDS011;14714;48.106;11.546;2022-12-20T02:59:14;8.63;;;5.53;;
27199;SDS011;14714;48.106;11.546;2022-12-20T03:01:51;10.32;;;6.03;;
27199;SDS011;14714;48.106;11.546;2022-12-20T03:04:21;8.90;;;5.47;;
27199;SDS011;14714;48.106;11.546;2022-12-20T03:06:55;6.60;;;4.78;;
27199;SDS011;14714;48.106;11.546;2022-12-20T03:09:25;7.15;;;4.65;;
27199;SDS011;14714;48.106;11.546;2022-12-20T03:11:52;6.45;;;3.95;;
27199;SDS011;14714;48.106;11.546;2022-12-20T03:14:19;7.50;;;4.00;;
27199;SDS011;14714;48.106;11.546;2022-12-20T03:16:46;5.80;;;4.20;;
27199;SDS011;14714;48.106;11.546;2022-12-20T03:19:14;6.05;;;3.72;;
27199;SDS011;14714;48.106;11.546;2022-12-20T03:21:41;5.25;;;3.83;;
27199;SDS011;14714;48.106;11.546;2022-12-20T03:24:08;6.10;;;3.88;;
27199;SDS011;14714;48.106;11.546;2022-12-20T03:26:36;5.95;;;4.03;;
27199;SDS011;14714;48.106;11.546;2022-12-20T03:29:03;5.50;;;3.80;;
27199;SDS011;14714;48.106;11.546;2022-12-20T03:31:30;5.82;;;3.63;;
27199;SDS011;14714;48.106;11.546;2022-12-20T03:33:57;4.50;;;3.50;;
27199;SDS011;14714;48.106;11.546;2022-12-20T03:36:23;5.78;;;3.92;;
27199;SDS011;14714;48.106;11.546;2022-12-20T03:38:51;7.43;;;4.28;;
27199;SDS011;14714;48.106;11.546;2022-12-20T03:41:19;5.22;;;3.58;;
27199;SDS011;14714;48.106;11.546;2022-12-20T03:43:48;7.60;;;4.43;;
27199;SDS011;14714;48.106;11.546;2022-12-20T03:46:15;6.28;;;3.70;;
27199;SDS011;14714;48.106;11.546;2022-12-20T03:48:42;7.05;;;4.32;;
27199;SDS011;14714;48.106;11.546;2022-12-20T03:51:09;5.47;;;3.83;;
27199;SDS011;14714;48.106;11.546;2022-12-20T03:53:36;5.70;;;3.75;;
27199;SDS011;14714;48.106;11.546;2022-12-20T03:56:03;5.38;;;3.60;;
27199;SDS011;14714;48.106;11.546;2022-12-20T03:58:30;5.57;;;3.35;;
27199;SDS011;14714;48.106;11.546;2022-12-20T04:00:57;5.47;;;3.58;;
27199;SDS011;14714;48.106;11.546;2022-12-20T04:03:24;5.68;;;3.47;;
27199;SDS011;14714;48.106;11.546;2022-12-20T04:05:51;5.63;;;3.67;;
27199;SDS011;14714;48.106;11.546;2022-12-20T04:08:18;5.22;;;3.50;;
27199;SDS011;14714;48.106;11.546;2022-12-20T04:10:44;5.55;;;3.70;;
27199;SDS011;14714;48.106;11.546;2022-12-20T04:13:29;5.88;;;3.97;;
27199;SDS011;14714;48.106;11.546;2022-12-20T04:15:56;5.65;;;3.58;;
27199;SDS011;14714;48.106;11.546;2022-12-20T04:18:26;5.65;;;3.75;;
27199;SDS011;14714;48.106;11.546;2022-12-20T04:20:53;4.68;;;3.10;;
27199;SDS011;14714;48.106;11.546;2022-12-20T04:23:20;6.07;;;3.70;;
27199;SDS011;14714;48.106;11.546;2022-12-20T04:25:46;4.97;;;3.40;;
27199;SDS011;14714;48.106;11.546;2022-12-20T04:28:13;5.90;;;3.88;;
27199;SDS011;14714;48.106;11.546;2022-12-20T04:30:40;4.55;;;3.22;;
27199;SDS011;14714;48.106;11.546;2022-12-20T04:33:07;5.65;;;3.65;;
27199;SDS011;14714;48.106;11.546;2022-12-20T04:35:33;5.32;;;3.45;;
27199;SDS011;14714;48.106;11.546;2022-12-20T04:38:01;5.93;;;3.65;;
27199;SDS011;14714;48.106;11.546;2022-12-20T04:40:28;4.63;;;3.40;;
27199;SDS011;14714;48.106;11.546;2022-12-20T04:42:55;6.57;;;3.90;;
27199;SDS011;14714;48.106;11.546;2022-12-20T04:45:22;6.20;;;3.88;;
27199;SDS011;14714;48.106;11.546;2022-12-20T04:47:48;5.47;;;3.50;;
27199;SDS011;14714;48.106;11.546;2022-12-20T04:50:15;5.80;;;3.53;;
27199;SDS011;14714;48.106;11.546;2022-12-20T04:52:44;4.82;;;3.33;;
27199;SDS011;14714;48.106;11.546;2022-12-20T04:55:29;5.28;;;3.58;;
27199;SDS011;14714;48.106;11.546;2022-12-20T04:57:56;6.30;;;3.55;;
27199;SDS011;14714;48.106;11.546;2022-12-20T05:00:30;5.70;;;3.78;;
27199;SDS011;14714;48.106;11.546;2022-12-20T05:02:58;5.00;;;3.60;;
27199;SDS011;14714;48.106;11.546;2022-12-20T05:05:25;5.38;;;3.40;;
27199;SDS011;14714;48.106;11.546;2022-12-20T05:07:52;5.25;;;3.42;;
27199;SDS011;14714;48.106;11.546;2022-12-20T05:10:19;5.30;;;3.40;;
27199;SDS011;14714;48.106;11.546;2022-12-20T05:12:46;4.65;;;3.40;;
27199;SDS011;14714;48.106;11.546;2022-12-20T05:15:13;5.45;;;3.45;;
27199;SDS011;14714;48.106;11.546;2022-12-20T05:17:40;5.10;;;3.60;;
27199;SDS011;14714;48.106;11.546;2022-12-20T05:20:07;5.75;;;3.80;;
27199;SDS011;14714;48.106;11.546;2022-12-20T05:22:34;5.93;;;3.47;;
27199;SDS011;14714;48.106;11.546;2022-12-20T05:25:19;4.78;;;3.30;;
27199;SDS011;14714;48.106;11.546;2022-12-20T05:28:05;5.97;;;3.38;;
27199;SDS011;14714;48.106;11.546;2022-12-20T05:30:33;4.68;;;3.50;;
27199;SDS011;14714;48.106;11.546;2022-12-20T05:32:59;5.90;;;3.90;;
27199;SDS011;14714;48.106;11.546;2022-12-20T05:35:26;5.85;;;3.60;;
27199;SDS011;14714;48.106;11.546;2022-12-20T05:37:53;4.80;;;3.25;;
27199;SDS011;14714;48.106;11.546;2022-12-20T05:40:20;4.72;;;3.42;;
27199;SDS011;14714;48.106;11.546;2022-12-20T05:42:47;5.60;;;3.50;;
27199;SDS011;14714;48.106;11.546;2022-12-20T05:45:14;3.85;;;3.08;;
27199;SDS011;14714;48.106;11.546;2022-12-20T05:47:41;5.30;;;3.63;;
27199;SDS011;14714;48.106;11.546;2022-12-20T05:50:07;5.00;;;3.45;;
27199;SDS011;14714;48.106;11.546;2022-12-20T05:52:43;6.03;;;3.30;;
27199;SDS011;14714;48.106;11.546;2022-12-20T05:55:10;5.72;;;3.45;;
27199;SDS011;14714;48.106;11.546;2022-12-20T05:57:37;5.75;;;3.40;;
27199;SDS011;14714;48.106;11.546;2022-12-20T06:00:04;4.60;;;3.22;;
27199;SDS011;14714;48.106;11.546;2022-12-20T06:02:32;4.60;;;3.17;;
27199;SDS011;14714;48.106;11.546;2022-12-20T06:04:59;4.75;;;3.03;;
27199;SDS011;14714;48.106;11.546;2022-12-20T06:07:26;6.40;;;3.90;;
27199;SDS011;14714;48.106;11.546;2022-12-20T06:09:57;5.93;;;3.63;;
27199;SDS011;14714;48.106;11.546;2022-12-20T06:12:24;4.15;;;3.00;;
27199;SDS011;14714;48.106;11.546;2022-12-20T06:14:50;4.65;;;3.28;;
27199;SDS011;14714;48.106;11.546;2022-12-20T06:17:17;5.80;;;3.58;;
27199;SDS011;14714;48.106;11.546;2022-12-20T06:19:45;4.90;;;3.25;;
27199;SDS011;14714;48.106;11.546;2022-12-20T06:22:12;4.90;;;3.35;;
27199;SDS011;14714;48.106;11.546;2022-12-20T06:24:38;5.00;;;3.28;;
27199;SDS011;14714;48.106;11.546;2022-12-20T06:27:13;6.25;;;3.55;;
27199;SDS011;14714;48.106;11.546;2022-12-20T06:29:40;5.38;;;3.35;;
27199;SDS011;14714;48.106;11.546;2022-12-20T06:32:07;5.22;;;3.47;;
27199;SDS011;14714;48.106;11.546;2022-12-20T06:34:33;5.93;;;3.58;;
27199;SDS011;14714;48.106;11.546;2022-12-20T06:37:00;5.75;;;3.45;;
27199;SDS011;14714;48.106;11.546;2022-12-20T06:39:27;6.55;;;3.72;;
27199;SDS011;14714;48.106;11.546;2022-12-20T06:41:54;5.70;;;3.25;;
27199;SDS011;14714;48.106;11.546;2022-12-20T06:44:20;7.97;;;3.38;;
27199;SDS011;14714;48.106;11.546;2022-12-20T06:46:47;6.47;;;4.07;;
27199;SDS011;14714;48.106;11.546;2022-12-20T06:49:14;6.28;;;3.60;;
27199;SDS011;14714;48.106;11.546;2022-12-20T06:51:41;5.38;;;3.47;;
27199;SDS011;14714;48.106;11.546;2022-12-20T06:54:07;7.35;;;3.30;;
27199;SDS011;14714;48.106;11.546;2022-12-20T06:56:34;5.25;;;3.70;;
27199;SDS011;14714;48.106;11.546;2022-12-20T06:59:06;5.72;;;3.33;;
27199;SDS011;14714;48.106;11.546;2022-12-20T07:01:33;5.15;;;3.38;;
27199;SDS011;14714;48.106;11.546;2022-12-20T07:04:00;5.95;;;3.60;;
27199;SDS011;14714;48.106;11.546;2022-12-20T07:06:27;6.38;;;3.40;;
27199;SDS011;14714;48.106;11.546;2022-12-20T07:08:54;5.10;;;3.47;;
27199;SDS011;14714;48.106;11.546;2022-12-20T07:11:21;5.03;;;3.42;;
27199;SDS011;14714;48.106;11.546;2022-12-20T07:13:48;5.43;;;3.22;;
27199;SDS011;14714;48.106;11.546;2022-12-20T07:16:15;4.97;;;3.30;;
27199;SDS011;14714;48.106;11.546;2022-12-20T07:18:42;5.07;;;3.30;;
27199;SDS011;14714;48.106;11.546;2022-12-20T07:21:09;5.22;;;4.03;;
27199;SDS011;14714;48.106;11.546;2022-12-20T07:23:35;5.28;;;3.70;;
27199;SDS011;14714;48.106;11.546;2022-12-20T07:26:02;6.07;;;4.10;;
27199;SDS011;14714;48.106;11.546;2022-12-20T07:28:29;5.50;;;3.42;;
27199;SDS011;14714;48.106;11.546;2022-12-20T07:30:59;8.40;;;3.70;;
27199;SDS011;14714;48.106;11.546;2022-12-20T07:33:26;7.13;;;3.53;;
27199;SDS011;14714;48.106;11.546;2022-12-20T07:36:00;6.60;;;3.50;;
27199;SDS011;14714;48.106;11.546;2022-12-20T07:38:35;6.40;;;3.55;;
27199;SDS011;14714;48.106;11.546;2022-12-20T07:41:10;8.10;;;3.97;;
27199;SDS011;14714;48.106;11.546;2022-12-20T07:43:39;4.95;;;3.70;;
27199;SDS011;14714;48.106;11.546;2022-12-20T07:46:06;6.05;;;4.40;;
27199;SDS011;14714;48.106;11.546;2022-12-20T07:48:34;6.03;;;3.95;;
27199;SDS011;14714;48.106;11.546;2022-12-20T07:51:05;5.82;;;4.03;;
27199;SDS011;14714;48.106;11.546;2022-12-20T07:53:53;6.97;;;4.00;;
27199;SDS011;14714;48.106;11.546;2022-12-20T07:56:25;4.47;;;3.20;;
27199;SDS011;14714;48.106;11.546;2022-12-20T07:58:53;5.60;;;3.70;;
27199;SDS011;14714;48.106;11.546;2022-12-20T08:01:24;6.97;;;4.10;;
27199;SDS011;14714;48.106;11.546;2022-12-20T08:03:54;6.00;;;3.58;;
27199;SDS011;14714;48.106;11.546;2022-12-20T08:06:31;5.22;;;3.60;;
27199;SDS011;14714;48.106;11.546;2022-12-20T08:08:59;6.22;;;3.63;;
27199;SDS011;14714;48.106;11.546;2022-12-20T08:11:29;6.30;;;4.10;;
27199;SDS011;14714;48.106;11.546;2022-12-20T08:16:26;5.05;;;3.50;;
27199;SDS011;14714;48.106;11.546;2022-12-20T08:18:53;6.88;;;3.70;;
27199;SDS011;14714;48.106;11.546;2022-12-20T08:21:20;4.82;;;3.33;;
27199;SDS011;14714;48.106;11.546;2022-12-20T08:23:46;4.45;;;3.30;;
27199;SDS011;14714;48.106;11.546;2022-12-20T08:26:13;5.20;;;3.30;;
27199;SDS011;14714;48.106;11.546;2022-12-20T08:28:40;7.13;;;3.80;;
27199;SDS011;14714;48.106;11.546;2022-12-20T08:31:07;6.82;;;3.60;;
27199;SDS011;14714;48.106;11.546;2022-12-20T08:33:35;5.03;;;3.50;;
27199;SDS011;14714;48.106;11.546;2022-12-20T08:36:07;5.07;;;3.30;;
27199;SDS011;14714;48.106;11.546;2022-12-20T08:38:36;4.55;;;3.38;;
27199;SDS011;14714;48.106;11.546;2022-12-20T08:41:03;5.72;;;3.53;;
27199;SDS011;14714;48.106;11.546;2022-12-20T08:43:36;7.15;;;3.83;;
27199;SDS011;14714;48.106;11.546;2022-12-20T08:46:03;5.07;;;3.90;;
27199;SDS011;14714;48.106;11.546;2022-12-20T08:48:32;5.10;;;3.38;;
27199;SDS011;14714;48.106;11.546;2022-12-20T08:51:00;5.18;;;3.63;;
27199;SDS011;14714;48.106;11.546;2022-12-20T08:53:30;5.88;;;3.80;;
27199;SDS011;14714;48.106;11.546;2022-12-20T08:58:34;6.95;;;3.67;;
27199;SDS011;14714;48.106;11.546;2022-12-20T09:01:02;4.22;;;3.20;;
27199;SDS011;14714;48.106;11.546;2022-12-20T09:03:32;6.85;;;3.60;;
27199;SDS011;14714;48.106;11.546;2022-12-20T09:06:03;6.03;;;3.53;;
27199;SDS011;14714;48.106;11.546;2022-12-20T09:08:35;5.28;;;3.35;;
27199;SDS011;14714;48.106;11.546;2022-12-20T09:11:07;10.02;;;3.75;;
27199;SDS011;14714;48.106;11.546;2022-12-20T09:13:34;7.90;;;3.40;;
27199;SDS011;14714;48.106;11.546;2022-12-20T09:16:09;5.53;;;3.65;;
27199;SDS011;14714;48.106;11.546;2022-12-20T09:18:37;5.95;;;3.35;;
27199;SDS011;14714;48.106;11.546;2022-12-20T09:21:04;4.15;;;3.10;;
27199;SDS011;14714;48.106;11.546;2022-12-20T09:23:32;4.15;;;3.17;;
27199;SDS011;14714;48.106;11.546;2022-12-20T09:26:01;5.43;;;3.42;;
27199;SDS011;14714;48.106;11.546;2022-12-20T09:28:29;4.32;;;3.05;;
27199;SDS011;14714;48.106;11.546;2022-12-20T09:30:57;5.07;;;3.20;;
27199;SDS011;14714;48.106;11.546;2022-12-20T09:33:25;4.97;;;3.25;;
27199;SDS011;14714;48.106;11.546;2022-12-20T09:35:54;5.55;;;3.30;;
27199;SDS011;14714;48.106;11.546;2022-12-20T09:38:20;5.63;;;2.95;;
27199;SDS011;14714;48.106;11.546;2022-12-20T09:40:52;4.45;;;3.20;;
27199;SDS011;14714;48.106;11.546;2022-12-20T09:43:20;4.30;;;3.20;;
27199;SDS011;14714;48.106;11.546;2022-12-20T09:45:50;5.75;;;2.90;;
27199;SDS011;14714;48.106;11.546;2022-12-20T09:48:22;5.97;;;3.13;;
27199;SDS011;14714;48.106;11.546;2022-12-20T09:51:42;3.67;;;2.97;;
27199;SDS011;14714;48.106;11.546;2022-12-20T09:54:10;5.00;;;3.10;;
27199;SDS011;14714;48.106;11.546;2022-12-20T09:56:55;9.13;;;3.60;;
27199;SDS011;14714;48.106;11.546;2022-12-20T09:59:23;6.57;;;3.50;;
27199;SDS011;14714;48.106;11.546;2022-12-20T10:01:50;8.25;;;3.25;;
27199;SDS011;14714;48.106;11.546;2022-12-20T10:09:56;4.55;;;3.20;;
27199;SDS011;14714;48.106;11.546;2022-12-20T10:17:51;5.72;;;3.22;;
27199;SDS011;14714;48.106;11.546;2022-12-20T10:23:13;6.38;;;3.15;;
27199;SDS011;14714;48.106;11.546;2022-12-20T10:25:58;5.57;;;3.80;;
27199;SDS011;14714;48.106;11.546;2022-12-20T10:28:26;3.90;;;2.97;;
27199;SDS011;14714;48.106;11.546;2022-12-20T10:31:02;4.97;;;3.28;;
27199;SDS011;14714;48.106;11.546;2022-12-20T10:33:31;5.63;;;3.15;;
27199;SDS011;14714;48.106;11.546;2022-12-20T10:38:54;4.43;;;3.13;;
27199;SDS011;14714;48.106;11.546;2022-12-20T10:41:26;4.97;;;3.33;;
27199;SDS011;14714;48.106;11.546;2022-12-20T10:44:00;5.53;;;3.42;;
27199;SDS011;14714;48.106;11.546;2022-12-20T10:46:54;5.07;;;3.40;;
27199;SDS011;14714;48.106;11.546;2022-12-20T10:51:54;6.32;;;3.08;;
27199;SDS011;14714;48.106;11.546;2022-12-20T10:54:23;4.35;;;3.00;;
27199;SDS011;14714;48.106;11.546;2022-12-20T10:57:21;4.32;;;3.05;;
27199;SDS011;14714;48.106;11.546;2022-12-20T10:59:51;4.63;;;3.00;;
27199;SDS011;14714;48.106;11.546;2022-12-20T11:02:32;4.20;;;2.90;;
27199;SDS011;14714;48.106;11.546;2022-12-20T11:07:38;4.53;;;3.15;;
27199;SDS011;14714;48.106;11.546;2022-12-20T11:10:38;4.60;;;3.00;;
27199;SDS011;14714;48.106;11.546;2022-12-20T11:13:05;5.50;;;3.08;;
27199;SDS011;14714;48.106;11.546;2022-12-20T11:15:33;3.53;;;2.88;;
27199;SDS011;14714;48.106;11.546;2022-12-20T11:18:04;5.28;;;3.20;;
27199;SDS011;14714;48.106;11.546;2022-12-20T11:26:55;4.97;;;2.85;;
27199;SDS011;14714;48.106;11.546;2022-12-20T11:29:37;4.38;;;2.80;;
27199;SDS011;14714;48.106;11.546;2022-12-20T11:32:31;5.22;;;2.80;;
27199;SDS011;14714;48.106;11.546;2022-12-20T11:35:44;6.05;;;2.80;;
27199;SDS011;14714;48.106;11.546;2022-12-20T11:52:28;3.93;;;2.33;;
27199;SDS011;14714;48.106;11.546;2022-12-20T11:57:58;4.15;;;2.50;;
27199;SDS011;14714;48.106;11.546;2022-12-20T12:00:49;3.15;;;2.42;;
27199;SDS011;14714;48.106;11.546;2022-12-20T12:03:35;3.85;;;2.90;;
27199;SDS011;14714;48.106;11.546;2022-12-20T12:06:25;4.57;;;2.55;;
27199;SDS011;14714;48.106;11.546;2022-12-20T12:09:13;5.10;;;2.95;;
27199;SDS011;14714;48.106;11.546;2022-12-20T12:12:01;4.90;;;3.53;;
27199;SDS011;14714;48.106;11.546;2022-12-20T12:14:45;4.80;;;3.25;;
27199;SDS011;14714;48.106;11.546;2022-12-20T12:17:34;4.82;;;3.42;;
27199;SDS011;14714;48.106;11.546;2022-12-20T12:20:53;6.63;;;3.47;;
27199;SDS011;14714;48.106;11.546;2022-12-20T12:26:14;7.10;;;4.05;;
27199;SDS011;14714;48.106;11.546;2022-12-20T12:28:55;7.50;;;3.97;;
27199;SDS011;14714;48.106;11.546;2022-12-20T12:31:28;6.15;;;4.10;;
27199;SDS011;14714;48.106;11.546;2022-12-20T12:39:31;7.68;;;4.40;;
27199;SDS011;14714;48.106;11.546;2022-12-20T12:45:02;8.45;;;4.05;;
27199;SDS011;14714;48.106;11.546;2022-12-20T12:47:42;11.32;;;3.90;;
27199;SDS011;14714;48.106;11.546;2022-12-20T12:50:22;8.25;;;4.32;;
27199;SDS011;14714;48.106;11.546;2022-12-20T12:52:53;10.60;;;4.75;;
27199;SDS011;14714;48.106;11.546;2022-12-20T12:55:35;8.35;;;4.43;;
27199;SDS011;14714;48.106;11.546;2022-12-20T13:03:39;8.93;;;4.20;;
27199;SDS011;14714;48.106;11.546;2022-12-20T13:08:51;8.77;;;4.80;;
27199;SDS011;14714;48.106;11.546;2022-12-20T13:11:51;8.43;;;4.50;;
27199;SDS011;14714;48.106;11.546;2022-12-20T13:19:48;6.90;;;4.10;;
27199;SDS011;14714;48.106;11.546;2022-12-20T13:22:21;8.63;;;4.60;;
27199;SDS011;14714;48.106;11.546;2022-12-20T13:24:59;7.65;;;4.57;;
27199;SDS011;14714;48.106;11.546;2022-12-20T13:33:13;8.93;;;4.65;;
27199;SDS011;14714;48.106;11.546;2022-12-20T13:40:22;8.75;;;4.72;;
27199;SDS011;14714;48.106;11.546;2022-12-20T13:45:46;12.07;;;5.15;;
27199;SDS011;14714;48.106;11.546;2022-12-20T13:48:41;8.07;;;4.55;;
27199;SDS011;14714;48.106;11.546;2022-12-20T13:51:17;8.23;;;4.70;;
27199;SDS011;14714;48.106;11.546;2022-12-20T13:53:56;10.90;;;4.90;;
27199;SDS011;14714;48.106;11.546;2022-12-20T13:58:52;9.57;;;4.78;;
27199;SDS011;14714;48.106;11.546;2022-12-20T14:01:21;9.50;;;4.97;;
27199;SDS011;14714;48.106;11.546;2022-12-20T14:03:49;12.18;;;5.28;;
27199;SDS011;14714;48.106;11.546;2022-12-20T14:06:19;8.77;;;5.10;;
27199;SDS011;14714;48.106;11.546;2022-12-20T14:08:52;10.05;;;5.57;;
27199;SDS011;14714;48.106;11.546;2022-12-20T14:11:28;15.52;;;5.90;;
27199;SDS011;14714;48.106;11.546;2022-12-20T14:16:24;14.27;;;6.20;;
27199;SDS011;14714;48.106;11.546;2022-12-20T14:21:25;13.88;;;5.78;;
27199;SDS011;14714;48.106;11.546;2022-12-20T14:23:53;13.45;;;5.57;;
27199;SDS011;14714;48.106;11.546;2022-12-20T14:28:52;9.80;;;5.53;;
27199;SDS011;14714;48.106;11.546;2022-12-20T14:31:35;9.60;;;5.50;;
27199;SDS011;14714;48.106;11.546;2022-12-20T14:34:09;11.57;;;5.60;;
27199;SDS011;14714;48.106;11.546;2022-12-20T14:36:41;12.45;;;5.40;;
27199;SDS011;14714;48.106;11.546;2022-12-20T14:42:01;9.05;;;5.45;;
27199;SDS011;14714;48.106;11.546;2022-12-20T14:44:38;13.02;;;5.72;;
27199;SDS011;14714;48.106;11.546;2022-12-20T14:49:48;8.55;;;5.07;;
27199;SDS011;14714;48.106;11.546;2022-12-20T14:52:24;16.83;;;6.25;;
27199;SDS011;14714;48.106;11.546;2022-12-20T14:54:59;13.30;;;6.50;;
27199;SDS011;14714;48.106;11.546;2022-12-20T15:00:13;9.30;;;5.60;;
27199;SDS011;14714;48.106;11.546;2022-12-20T15:11:01;11.35;;;6.10;;
27199;SDS011;14714;48.106;11.546;2022-12-20T15:16:03;12.80;;;6.50;;
27199;SDS011;14714;48.106;11.546;2022-12-20T15:18:31;12.07;;;6.10;;
27199;SDS011;14714;48.106;11.546;2022-12-20T15:23:35;10.85;;;6.47;;
27199;SDS011;14714;48.106;11.546;2022-12-20T15:26:05;15.50;;;6.32;;
27199;SDS011;14714;48.106;11.546;2022-12-20T15:28:31;11.05;;;5.88;;
27199;SDS011;14714;48.106;11.546;2022-12-20T15:30:58;10.20;;;6.07;;
27199;SDS011;14714;48.106;11.546;2022-12-20T15:33:26;11.68;;;6.18;;
27199;SDS011;14714;48.106;11.546;2022-12-20T15:38:23;11.38;;;6.03;;
27199;SDS011;14714;48.106;11.546;2022-12-20T15:41:22;13.85;;;6.32;;
27199;SDS011;14714;48.106;11.546;2022-12-20T15:44:04;13.88;;;6.78;;
27199;SDS011;14714;48.106;11.546;2022-12-20T15:46:35;14.93;;;7.85;;
27199;SDS011;14714;48.106;11.546;2022-12-20T15:49:02;15.52;;;7.03;;
27199;SDS011;14714;48.106;11.546;2022-12-20T15:51:29;14.60;;;7.22;;
27199;SDS011;14714;48.106;11.546;2022-12-20T15:54:01;12.75;;;7.43;;
27199;SDS011;14714;48.106;11.546;2022-12-20T15:56:39;12.80;;;7.53;;
27199;SDS011;14714;48.106;11.546;2022-12-20T15:59:05;13.35;;;6.57;;
27199;SDS011;14714;48.106;11.546;2022-12-20T16:01:52;16.85;;;9.77;;
27199;SDS011;14714;48.106;11.546;2022-12-20T16:04:20;21.25;;;10.85;;
27199;SDS011;14714;48.106;11.546;2022-12-20T16:06:48;21.50;;;9.30;;
27199;SDS011;14714;48.106;11.546;2022-12-20T16:09:16;20.33;;;9.90;;
27199;SDS011;14714;48.106;11.546;2022-12-20T16:11:43;18.25;;;9.70;;
27199;SDS011;14714;48.106;11.546;2022-12-20T16:14:14;18.38;;;9.07;;
27199;SDS011;14714;48.106;11.546;2022-12-20T16:16:42;20.42;;;9.32;;
27199;SDS011;14714;48.106;11.546;2022-12-20T16:19:10;17.55;;;9.52;;
27199;SDS011;14714;48.106;11.546;2022-12-20T16:21:41;16.23;;;9.55;;
27199;SDS011;14714;48.106;11.546;2022-12-20T16:24:11;20.27;;;9.45;;
27199;SDS011;14714;48.106;11.546;2022-12-20T16:26:39;15.75;;;8.23;;
27199;SDS011;14714;48.106;11.546;2022-12-20T16:29:07;14.45;;;7.45;;
27199;SDS011;14714;48.106;11.546;2022-12-20T16:31:35;15.85;;;8.40;;
27199;SDS011;14714;48.106;11.546;2022-12-20T16:34:14;12.57;;;6.85;;
27199;SDS011;14714;48.106;11.546;2022-12-20T16:36:42;9.23;;;5.93;;
27199;SDS011;14714;48.106;11.546;2022-12-20T16:39:09;11.02;;;6.22;;
27199;SDS011;14714;48.106;11.546;2022-12-20T16:41:38;9.82;;;6.22;;
27199;SDS011;14714;48.106;11.546;2022-12-20T16:44:09;13.02;;;6.65;;
27199;SDS011;14714;48.106;11.546;2022-12-20T16:46:41;15.00;;;7.20;;
27199;SDS011;14714;48.106;11.546;2022-12-20T16:49:09;16.77;;;9.48;;
27199;SDS011;14714;48.106;11.546;2022-12-20T16:51:45;16.05;;;9.10;;
27199;SDS011;14714;48.106;11.546;2022-12-20T16:54:14;17.83;;;10.65;;
27199;SDS011;14714;48.106;11.546;2022-12-20T16:56:46;19.60;;;11.80;;
27199;SDS011;14714;48.106;11.546;2022-12-20T16:59:17;21.15;;;11.23;;
27199;SDS011;14714;48.106;11.546;2022-12-20T17:01:47;18.10;;;10.38;;
27199;SDS011;14714;48.106;11.546;2022-12-20T17:04:17;17.73;;;9.68;;
27199;SDS011;14714;48.106;11.546;2022-12-20T17:06:44;16.73;;;10.00;;
27199;SDS011;14714;48.106;11.546;2022-12-20T17:09:12;22.67;;;11.32;;
27199;SDS011;14714;48.106;11.546;2022-12-20T17:11:38;29.52;;;14.32;;
27199;SDS011;14714;48.106;11.546;2022-12-20T17:14:05;32.50;;;15.02;;
27199;SDS011;14714;48.106;11.546;2022-12-20T17:16:38;27.95;;;13.38;;
27199;SDS011;14714;48.106;11.546;2022-12-20T17:19:05;24.80;;;12.20;;
27199;SDS011;14714;48.106;11.546;2022-12-20T17:24:27;21.80;;;11.80;;
27199;SDS011;14714;48.106;11.546;2022-12-20T17:26:54;21.17;;;11.85;;
27199;SDS011;14714;48.106;11.546;2022-12-20T17:29:21;21.85;;;11.70;;
27199;SDS011;14714;48.106;11.546;2022-12-20T17:31:48;19.70;;;11.77;;